Flight Track Log - Related Links

Times and Time Zones

All times are in EDT time to prevent confusion due to time zone crossing. See the ASQ6068 flight status page for this flight to view local times or setup timezone preferences in your user account.

Time Position Orientation Groundspeed Altitude Reporting Facility
EDT Latitude Longitude Course Direction KTS MPH feet Rate Location/Type
Sat 01:16:38 PM 36.1983 -94.3075 266° West 207 238 3,900  Level Memphis Center
Sat 01:17:38 PM 36.1897 -94.3764 261° West 230 265 5,900 1,706 Climbing Memphis Center
Sat 01:18:20 PM 36.1928 -94.4217 275° West 243 280 6,800 1,864 Climbing Kansas City Center
Sat 01:19:00 PM 36.2457 -94.8185 264° West  Level FlightAware Approximate
Sat 01:19:21 PM 36.1931 -94.5178 270° West 270 311 9,100  Level Kansas City Center
Sat 01:20:00 PM 36.2349 -94.9479 264° West  Level FlightAware Approximate
Sat 01:20:24 PM 36.1939 -94.6200 271° West 289 333 10,900  Level Kansas City Center
Sat 01:21:00 PM 36.2275 -95.0776 266° West  Level FlightAware Approximate
Sat 01:21:26 PM 36.1950 -94.7619 271° West 335 386 12,700  Level Kansas City Center
Sat 01:22:27 PM 36.1958 -94.8844 271° West 350 403 14,600 1,790 Climbing Kansas City Center
Sat 01:23:30 PM 36.1956 -95.0072 270° West 353 406 16,400 1,694 Climbing Kansas City Center
Sat 01:24:31 PM 36.1967 -95.1411 271° West 356 410 18,100 1,488 Climbing Kansas City Center
Sat 01:25:35 PM 36.1961 -95.2667 270° West 363 418 19,500 1,248 Climbing Kansas City Center
Sat 01:26:36 PM 36.1953 -95.3950 270° West 370 426 20,700 1,230 Climbing Kansas City Center
Sat 01:27:37 PM 36.1967 -95.5258 271° West 379 436 22,000 1,200 Climbing Kansas City Center
Sat 01:28:41 PM 36.1967 -95.6561 270° West 380 437 23,200 1,248 Climbing Kansas City Center
Sat 01:29:42 PM 36.1981 -95.7836 271° West 378 435 24,600 1,525 Climbing Kansas City Center
Sat 01:30:43 PM 36.2514 -95.9239 295° West 373 429 26,300 1,500 Climbing Kansas City Center
Sat 01:31:46 PM 36.2978 -96.0364 297° West 367 422 27,700 1,258 Climbing Kansas City Center
Sat 01:32:47 PM 36.3444 -96.1497 297° West 367 422 28,900 1,152 Climbing Kansas City Center
Sat 01:33:51 PM 36.3914 -96.2650 297° West 371 427 30,100 1,095 Climbing Kansas City Center
Sat 01:34:53 PM 36.4367 -96.3794 296° West 369 425 31,200 1,033 Climbing Kansas City Center
Sat 01:35:53 PM 36.4839 -96.4958 297° West 374 430 32,200 1,065 Climbing Kansas City Center
Sat 01:36:57 PM 36.5303 -96.6122 296° West 375 432 33,400 864 Climbing Kansas City Center
Sat 01:37:58 PM 36.5864 -96.7522 297° West 374 430 34,000 295 Climbing Kansas City Center
Sat 01:38:59 PM 36.6356 -96.8756 296° West 389 448 34,000  Level Kansas City Center
Sat 01:40:03 PM 36.6878 -97.0094 296° West 417 480 34,000  Level Kansas City Center
Sat 01:41:04 PM 36.7383 -97.1367 296° West 436 502 34,000  Level Kansas City Center
Sat 01:42:06 PM 36.7981 -97.3053 294° West 444 511 34,000  Level Kansas City Center
Sat 01:43:07 PM 36.8461 -97.4422 294° West 441 507 34,000  Level Kansas City Center
Sat 01:44:10 PM 36.8936 -97.5894 292° West 444 511 34,000  Level Kansas City Center
Sat 01:45:12 PM 36.9425 -97.7314 293° West 445 512 34,000  Level Kansas City Center
Sat 01:46:15 PM 36.9894 -97.8711 293° West 442 509 34,000  Level Kansas City Center
Sat 01:47:18 PM 37.0372 -98.0083 294° West 437 503 34,000  Level Kansas City Center
Sat 01:48:19 PM 37.0839 -98.1469 293° West 433 498 34,000  Level Kansas City Center
Sat 01:49:19 PM 37.1308 -98.2844 293° West 431 496 34,000  Level Kansas City Center
Sat 01:50:22 PM 37.1864 -98.4497 293° West 429 494 34,000  Level Kansas City Center
Sat 01:51:23 PM 37.2319 -98.5867 293° West 426 490 34,000  Level Kansas City Center
Sat 01:52:27 PM 37.2781 -98.7253 293° West 427 491 34,000  Level Kansas City Center
Sat 01:53:27 PM 37.3242 -98.8653 293° West 430 495 34,000  Level Kansas City Center
Sat 01:54:30 PM 37.3692 -99.0042 292° West 429 494 34,000  Level Kansas City Center
Sat 01:55:31 PM 37.4156 -99.1436 293° West 430 495 34,000  Level Kansas City Center
Sat 01:56:34 PM 37.4608 -99.2822 292° West 429 494 34,000  Level Kansas City Center
Sat 01:57:36 PM 37.5150 -99.4508 292° West 431 496 34,000  Level Kansas City Center
Sat 01:58:36 PM 37.5611 -99.5919 292° West 427 491 34,000  Level Kansas City Center
Sat 01:59:41 PM 37.6039 -99.7242 292° West 427 491 34,000  Level Kansas City Center
Sat 02:00:42 PM 37.6531 -99.8786 292° West 426 490 34,000  Level Kansas City Center
Sat 02:01:42 PM 37.6950 -100.0106 292° West 425 489 34,000  Level Kansas City Center
Sat 02:02:46 PM 37.7439 -100.1633 292° West 422 486 34,000  Level Kansas City Center
Sat 02:03:47 PM 37.7850 -100.2931 292° West 420 483 34,000  Level Kansas City Center
Sat 02:04:51 PM 37.8336 -100.4478 292° West 425 489 34,000  Level Kansas City Center
Sat 02:05:51 PM 37.8742 -100.5789 291° West 423 487 34,000  Level Kansas City Center
Sat 02:06:53 PM 37.9231 -100.7308 292° West 421 484 34,000  Level Kansas City Center
Sat 02:07:57 PM 37.9700 -100.8564 295° West 417 480 34,000  Level Kansas City Center
Sat 02:08:57 PM 38.0267 -101.0019 296° West 415 478 34,000  Level Kansas City Center
Sat 02:10:01 PM 38.0747 -101.1303 295° West 421 484 34,000  Level Kansas City Center
Sat 02:11:01 PM 38.1306 -101.2772 296° West 418 481 34,000  Level Kansas City Center
Sat 02:12:05 PM 38.1775 -101.4028 295° West 415 478 34,000  Level Kansas City Center
Sat 02:13:06 PM 38.2422 -101.5456 300° West 416 479 34,000  Level Kansas City Center
Sat 02:14:06 PM 38.3028 -101.6639 303° West 417 480 34,000  Level Kansas City Center
Sat 02:15:17 PM 38.3819 -101.8233 302° West 417 480 34,000  Level Denver Center
Sat 02:16:19 PM 38.4411 -101.9419 303° West 416 479 34,000  Level Denver Center
Sat 02:17:21 PM 38.5092 -102.0800 302° West 414 476 34,000  Level Denver Center
Sat 02:18:23 PM 38.5686 -102.1992 303° West 414 476 34,000 -387 Level Denver Center
Sat 02:19:25 PM 38.6269 -102.3144 303° West 407 468 33,200 -484 Descending Denver Center
Sat 02:20:27 PM 38.6903 -102.4453 302° West 392 451 33,000 -97 Descending Denver Center
Sat 02:21:29 PM 38.7417 -102.5542 301° West 378 435 33,000  Level Denver Center
Sat 02:22:31 PM 38.8053 -102.6886 301° West 392 451 33,000  Level Denver Center
Sat 02:23:33 PM 38.8697 -102.8203 302° West 404 465 33,000  Level Denver Center
Sat 02:24:35 PM 38.9294 -102.9431 302° West 407 468 33,000 -339 Level Denver Center
Sat 02:25:37 PM 38.9875 -103.0661 301° West 405 466 32,300 -1,065 Descending Denver Center
Sat 02:26:39 PM 39.0472 -103.1914 302° West 409 471 30,800 -1,500 Descending Denver Center
Sat 02:27:41 PM 39.1061 -103.3186 301° West 413 475 29,200 -2,011 Descending Denver Center
Sat 02:29:00 PM 39.1707 -103.4747 303° West  Level FlightAware Approximate
Sat 02:29:44 PM 39.2400 -103.6022 303° West 427 491 24,600  Level Denver Center
Sat 02:30:46 PM 39.3000 -103.7292 301° West 417 480 22,400 -2,081 Descending Denver Center
Sat 02:31:48 PM 39.3542 -103.8481 301° West 389 448 20,300 -1,887 Descending Denver Center
Sat 02:32:50 PM 39.3956 -103.9644 295° West 345 397 18,500 -1,839 Descending Denver Center
Sat 02:33:52 PM 39.4033 -104.0778 275° West 319 367 16,500 -1,790 Descending Denver Center
Sat 02:34:54 PM 39.4069 -104.1867 272° West 304 350 14,800 -1,452 Descending Denver Center
Sat 02:35:56 PM 39.4117 -104.2983 273° West 291 335 13,500 -1,258 Descending Denver Center
Sat 02:36:58 PM 39.4472 -104.3894 297° West 289 333 12,200 -1,306 Descending Denver Center
Sat 02:38:00 PM 39.4914 -104.4806 302° West 281 323 10,800 -1,317 Descending Denver Center
Sat 02:39:01 PM 39.5603 -104.5294 331° Northwest 280 322 9,500 -878 Descending Denver Center
Sat 02:40:03 PM 39.6267 -104.5772 331° Northwest 274 315 9,000 -484 Descending Denver Center

Login

Don't have an account? Register now (free) for customized features, flight alerts, and more!